sensor_id;sensor_type;location;lat;lon;timestamp;pressure;altitude;pressure_sealevel;temperature;humidity
32747;BME280;19118;50.860;13.662;2022-12-18T00:01:38;98264.63;;;-14.76;100.00
32747;BME280;19118;50.860;13.662;2022-12-18T00:06:38;98269.63;;;-14.67;100.00
32747;BME280;19118;50.860;13.662;2022-12-18T00:11:38;98285.75;;;-14.74;100.00
32747;BME280;19118;50.860;13.662;2022-12-18T00:16:40;98296.78;;;-14.78;100.00
32747;BME280;19118;50.860;13.662;2022-12-18T00:21:43;98300.03;;;-14.58;100.00
32747;BME280;19118;50.860;13.662;2022-12-18T00:26:43;98303.31;;;-14.50;100.00
32747;BME280;19118;50.860;13.662;2022-12-18T00:31:45;98306.72;;;-14.48;100.00
32747;BME280;19118;50.860;13.662;2022-12-18T00:36:47;98310.13;;;-14.49;100.00
32747;BME280;19118;50.860;13.662;2022-12-18T00:41:47;98300.91;;;-14.63;100.00
32747;BME280;19118;50.860;13.662;2022-12-18T00:47:06;98311.88;;;-14.57;100.00
32747;BME280;19118;50.860;13.662;2022-12-18T00:52:07;98311.84;;;-14.55;100.00
32747;BME280;19118;50.860;13.662;2022-12-18T00:57:07;98311.97;;;-14.71;100.00
32747;BME280;19118;50.860;13.662;2022-12-18T01:02:07;98312.81;;;-14.70;100.00
32747;BME280;19118;50.860;13.662;2022-12-18T01:07:08;98319.56;;;-14.72;100.00
32747;BME280;19118;50.860;13.662;2022-12-18T01:12:08;98336.53;;;-14.77;100.00
32747;BME280;19118;50.860;13.662;2022-12-18T01:17:09;98330.63;;;-14.78;100.00
32747;BME280;19118;50.860;13.662;2022-12-18T01:22:09;98340.72;;;-14.67;100.00
32747;BME280;19118;50.860;13.662;2022-12-18T01:27:09;98340.72;;;-14.67;100.00
32747;BME280;19118;50.860;13.662;2022-12-18T01:32:10;98337.34;;;-14.72;100.00
32747;BME280;19118;50.860;13.662;2022-12-18T01:37:10;98330.59;;;-14.73;100.00
32747;BME280;19118;50.860;13.662;2022-12-18T01:42:12;98337.44;;;-14.81;100.00
32747;BME280;19118;50.860;13.662;2022-12-18T01:47:18;98334.06;;;-14.86;100.00
32747;BME280;19118;50.860;13.662;2022-12-18T01:52:20;98327.31;;;-14.87;100.00
32747;BME280;19118;50.860;13.662;2022-12-18T01:57:23;98327.34;;;-14.93;100.00
32747;BME280;19118;50.860;13.662;2022-12-18T02:02:26;98329.00;;;-14.89;100.00
32747;BME280;19118;50.860;13.662;2022-12-18T02:07:45;98339.13;;;-14.85;100.00
32747;BME280;19118;50.860;13.662;2022-12-18T02:12:58;98338.28;;;-14.81;100.00
32747;BME280;19118;50.860;13.662;2022-12-18T02:18:07;98334.00;;;-14.77;100.00
32747;BME280;19118;50.860;13.662;2022-12-18T02:28:23;98341.66;;;-14.86;100.00
32747;BME280;19118;50.860;13.662;2022-12-18T02:33:28;98351.88;;;-14.94;100.00
32747;BME280;19118;50.860;13.662;2022-12-18T02:38:31;98341.72;;;-14.92;100.00
32747;BME280;19118;50.860;13.662;2022-12-18T02:43:39;98342.53;;;-14.89;100.00
32747;BME280;19118;50.860;13.662;2022-12-18T02:48:41;98345.91;;;-14.82;100.00
32747;BME280;19118;50.860;13.662;2022-12-18T02:58:58;98344.91;;;-14.60;100.00
32747;BME280;19118;50.860;13.662;2022-12-18T03:04:22;98347.41;;;-14.57;100.00
32747;BME280;19118;50.860;13.662;2022-12-18T03:09:33;98343.13;;;-14.53;100.00
32747;BME280;19118;50.860;13.662;2022-12-18T03:14:37;98346.50;;;-14.48;100.00
32747;BME280;19118;50.860;13.662;2022-12-18T03:19:40;98349.03;;;-14.47;100.00
32747;BME280;19118;50.860;13.662;2022-12-18T03:24:44;98344.00;;;-14.56;100.00
32747;BME280;19118;50.860;13.662;2022-12-18T03:29:56;98341.53;;;-14.65;100.00
32747;BME280;19118;50.860;13.662;2022-12-18T03:35:10;98355.13;;;-14.71;100.00
32747;BME280;19118;50.860;13.662;2022-12-18T03:40:12;98345.06;;;-14.83;100.00
32747;BME280;19118;50.860;13.662;2022-12-18T03:45:20;98362.81;;;-14.87;100.00
32747;BME280;19118;50.860;13.662;2022-12-18T03:50:41;98365.41;;;-14.92;100.00
32747;BME280;19118;50.860;13.662;2022-12-18T03:55:47;98367.16;;;-15.02;100.00
32747;BME280;19118;50.860;13.662;2022-12-18T04:00:52;98359.56;;;-15.08;100.00
32747;BME280;19118;50.860;13.662;2022-12-18T04:05:55;98358.75;;;-15.14;100.00
32747;BME280;19118;50.860;13.662;2022-12-18T04:10:57;98356.22;;;-15.13;100.00
32747;BME280;19118;50.860;13.662;2022-12-18T04:15:58;98367.22;;;-15.14;100.00
32747;BME280;19118;50.860;13.662;2022-12-18T04:20:59;98368.97;;;-15.26;100.00
32747;BME280;19118;50.860;13.662;2022-12-18T04:26:00;98379.97;;;-15.41;100.00
32747;BME280;19118;50.860;13.662;2022-12-18T04:31:14;98379.94;;;-15.32;100.00
32747;BME280;19118;50.860;13.662;2022-12-18T04:36:14;98381.69;;;-15.39;100.00
32747;BME280;19118;50.860;13.662;2022-12-18T04:41:15;98385.06;;;-15.37;100.00
32747;BME280;19118;50.860;13.662;2022-12-18T04:46:18;98380.84;;;-15.47;100.00
32747;BME280;19118;50.860;13.662;2022-12-18T04:51:19;98387.59;;;-15.37;100.00
32747;BME280;19118;50.860;13.662;2022-12-18T04:56:19;98384.19;;;-15.40;100.00
32747;BME280;19118;50.860;13.662;2022-12-18T05:01:20;98385.91;;;-15.44;100.00
32747;BME280;19118;50.860;13.662;2022-12-18T05:06:21;98393.53;;;-15.45;100.00
32747;BME280;19118;50.860;13.662;2022-12-18T05:11:21;98393.53;;;-15.54;100.00
32747;BME280;19118;50.860;13.662;2022-12-18T05:16:22;98391.94;;;-15.68;100.00
32747;BME280;19118;50.860;13.662;2022-12-18T05:21:22;98390.25;;;-15.78;100.00
32747;BME280;19118;50.860;13.662;2022-12-18T05:26:22;98383.50;;;-15.77;100.00
32747;BME280;19118;50.860;13.662;2022-12-18T05:31:23;98387.75;;;-15.81;100.00
32747;BME280;19118;50.860;13.662;2022-12-18T05:36:23;98389.41;;;-15.86;100.00
32747;BME280;19118;50.860;13.662;2022-12-18T05:41:24;98395.34;;;-15.87;100.00
32747;BME280;19118;50.860;13.662;2022-12-18T05:46:24;98395.34;;;-15.99;100.00
32747;BME280;19118;50.860;13.662;2022-12-18T05:51:25;98391.16;;;-16.05;100.00
32747;BME280;19118;50.860;13.662;2022-12-18T05:56:25;98387.78;;;-16.05;100.00
32747;BME280;19118;50.860;13.662;2022-12-18T06:01:26;98398.72;;;-15.91;100.00
32747;BME280;19118;50.860;13.662;2022-12-18T06:06:27;98416.47;;;-15.96;100.00
32747;BME280;19118;50.860;13.662;2022-12-18T06:11:27;98406.34;;;-15.96;100.00
32747;BME280;19118;50.860;13.662;2022-12-18T06:16:28;98407.16;;;-15.86;100.00
32747;BME280;19118;50.860;13.662;2022-12-18T06:21:30;98416.44;;;-15.76;100.00
32747;BME280;19118;50.860;13.662;2022-12-18T06:26:31;98420.66;;;-15.67;100.00
32747;BME280;19118;50.860;13.662;2022-12-18T06:31:32;98424.84;;;-15.63;100.00
32747;BME280;19118;50.860;13.662;2022-12-18T06:36:32;98426.50;;;-15.54;100.00
32747;BME280;19118;50.860;13.662;2022-12-18T06:41:32;98426.56;;;-15.61;100.00
32747;BME280;19118;50.860;13.662;2022-12-18T06:46:33;98432.41;;;-15.55;100.00
32747;BME280;19118;50.860;13.662;2022-12-18T06:51:33;98428.19;;;-15.49;100.00
32747;BME280;19118;50.860;13.662;2022-12-18T06:56:34;98428.16;;;-15.44;100.00
32747;BME280;19118;50.860;13.662;2022-12-18T07:01:34;98442.50;;;-15.40;100.00
32747;BME280;19118;50.860;13.662;2022-12-18T07:06:35;98452.69;;;-15.49;100.00
32747;BME280;19118;50.860;13.662;2022-12-18T07:11:35;98449.31;;;-15.39;100.00
32747;BME280;19118;50.860;13.662;2022-12-18T07:16:36;98459.44;;;-15.39;100.00
32747;BME280;19118;50.860;13.662;2022-12-18T07:21:36;98449.25;;;-15.33;100.00
32747;BME280;19118;50.860;13.662;2022-12-18T07:26:36;98454.34;;;-15.27;100.00
32747;BME280;19118;50.860;13.662;2022-12-18T07:31:37;98450.97;;;-15.27;100.00
32747;BME280;19118;50.860;13.662;2022-12-18T07:36:38;98452.59;;;-15.13;100.00
32747;BME280;19118;50.860;13.662;2022-12-18T07:41:39;98470.31;;;-15.01;100.00
32747;BME280;19118;50.860;13.662;2022-12-18T07:46:42;98472.81;;;-14.97;100.00
32747;BME280;19118;50.860;13.662;2022-12-18T07:51:43;98465.19;;;-14.91;100.00
32747;BME280;19118;50.860;13.662;2022-12-18T07:56:46;98466.00;;;-14.82;100.00
32747;BME280;19118;50.860;13.662;2022-12-18T08:01:46;98471.03;;;-14.74;100.00
32747;BME280;19118;50.860;13.662;2022-12-18T08:06:46;98484.50;;;-14.57;100.00
32747;BME280;19118;50.860;13.662;2022-12-18T08:11:47;98475.13;;;-14.44;100.00
32747;BME280;19118;50.860;13.662;2022-12-18T08:16:47;98466.53;;;-14.26;100.00
32747;BME280;19118;50.860;13.662;2022-12-18T08:21:48;98465.53;;;-14.04;100.00
32747;BME280;19118;50.860;13.662;2022-12-18T08:26:48;98456.00;;;-13.79;100.00
32747;BME280;19118;50.860;13.662;2022-12-18T08:31:48;98458.25;;;-13.50;100.00
32747;BME280;19118;50.860;13.662;2022-12-18T08:36:49;98456.28;;;-13.20;100.00
32747;BME280;19118;50.860;13.662;2022-12-18T08:41:49;98455.91;;;-12.90;100.00
32747;BME280;19118;50.860;13.662;2022-12-18T08:47:08;98454.59;;;-12.54;100.00
32747;BME280;19118;50.860;13.662;2022-12-18T08:52:08;98467.91;;;-12.32;100.00
32747;BME280;19118;50.860;13.662;2022-12-18T08:57:09;98469.28;;;-12.13;100.00
32747;BME280;19118;50.860;13.662;2022-12-18T09:02:10;98479.34;;;-12.02;100.00
32747;BME280;19118;50.860;13.662;2022-12-18T09:07:11;98479.91;;;-11.83;100.00
32747;BME280;19118;50.860;13.662;2022-12-18T09:12:11;98458.31;;;-11.64;100.00
32747;BME280;19118;50.860;13.662;2022-12-18T09:17:12;98467.38;;;-11.48;100.00
32747;BME280;19118;50.860;13.662;2022-12-18T09:22:12;98486.66;;;-11.30;100.00
32747;BME280;19118;50.860;13.662;2022-12-18T09:27:12;98496.97;;;-10.90;100.00
32747;BME280;19118;50.860;13.662;2022-12-18T09:32:13;98506.50;;;-10.53;100.00
32747;BME280;19118;50.860;13.662;2022-12-18T09:37:13;98498.28;;;-10.27;100.00
32747;BME280;19118;50.860;13.662;2022-12-18T09:42:21;98505.44;;;-10.06;100.00
32747;BME280;19118;50.860;13.662;2022-12-18T09:47:30;98492.06;;;-9.80;100.00
32747;BME280;19118;50.860;13.662;2022-12-18T09:52:40;98488.06;;;-9.56;100.00
32747;BME280;19118;50.860;13.662;2022-12-18T09:57:47;98480.84;;;-9.38;100.00
32747;BME280;19118;50.860;13.662;2022-12-18T10:02:51;98479.97;;;-9.05;100.00
32747;BME280;19118;50.860;13.662;2022-12-18T10:08:08;98467.50;;;-8.86;100.00
32747;BME280;19118;50.860;13.662;2022-12-18T10:13:21;98459.84;;;-8.57;100.00
32747;BME280;19118;50.860;13.662;2022-12-18T10:18:30;98447.94;;;-8.31;100.00
32747;BME280;19118;50.860;13.662;2022-12-18T10:28:44;98425.59;;;-7.73;100.00
32747;BME280;19118;50.860;13.662;2022-12-18T10:33:45;98417.91;;;-7.47;100.00
32747;BME280;19118;50.860;13.662;2022-12-18T10:38:46;98410.34;;;-7.26;100.00
32747;BME280;19118;50.860;13.662;2022-12-18T10:43:46;98407.34;;;-6.91;100.00
32747;BME280;19118;50.860;13.662;2022-12-18T10:53:52;98390.34;;;-6.48;100.00
32747;BME280;19118;50.860;13.662;2022-12-18T10:59:06;98387.69;;;-6.45;100.00
32747;BME280;19118;50.860;13.662;2022-12-18T11:04:09;98392.41;;;-6.12;100.00
32747;BME280;19118;50.860;13.662;2022-12-18T11:09:21;98405.28;;;-5.91;100.00
32747;BME280;19118;50.860;13.662;2022-12-18T11:14:24;98409.31;;;-6.05;100.00
32747;BME280;19118;50.860;13.662;2022-12-18T11:19:34;98398.25;;;-5.87;100.00
32747;BME280;19118;50.860;13.662;2022-12-18T11:24:36;98379.00;;;-5.78;100.00
32747;BME280;19118;50.860;13.662;2022-12-18T11:29:38;98376.47;;;-5.80;100.00
32747;BME280;19118;50.860;13.662;2022-12-18T11:34:48;98361.19;;;-5.63;100.00
32747;BME280;19118;50.860;13.662;2022-12-18T11:39:57;98363.63;;;-5.60;100.00
32747;BME280;19118;50.860;13.662;2022-12-18T11:50:16;98366.38;;;-5.44;100.00
32747;BME280;19118;50.860;13.662;2022-12-18T11:55:38;98371.09;;;-5.33;100.00
32747;BME280;19118;50.860;13.662;2022-12-18T12:00:47;98383.66;;;-5.46;100.00
32747;BME280;19118;50.860;13.662;2022-12-18T12:11:34;98391.16;;;-5.01;100.00
32747;BME280;19118;50.860;13.662;2022-12-18T12:22:24;98404.31;;;-4.86;100.00
32747;BME280;19118;50.860;13.662;2022-12-18T12:38:50;98412.94;;;-4.87;100.00
32747;BME280;19118;50.860;13.662;2022-12-18T12:43:54;98434.75;;;-5.15;100.00
32747;BME280;19118;50.860;13.662;2022-12-18T12:49:05;98419.88;;;-5.49;100.00
32747;BME280;19118;50.860;13.662;2022-12-18T12:54:20;98404.28;;;-5.66;100.00
32747;BME280;19118;50.860;13.662;2022-12-18T13:04:50;98401.72;;;-5.88;100.00
32747;BME280;19118;50.860;13.662;2022-12-18T13:15:42;98387.28;;;-6.58;100.00
32747;BME280;19118;50.860;13.662;2022-12-18T13:21:01;98388.13;;;-6.81;100.00
32747;BME280;19118;50.860;13.662;2022-12-18T13:31:06;98407.28;;;-7.38;100.00
32747;BME280;19118;50.860;13.662;2022-12-18T13:36:25;98411.28;;;-7.54;100.00
32747;BME280;19118;50.860;13.662;2022-12-18T13:41:26;98407.38;;;-7.66;100.00
32747;BME280;19118;50.860;13.662;2022-12-18T13:46:30;98410.34;;;-7.51;100.00
32747;BME280;19118;50.860;13.662;2022-12-18T13:51:50;98391.22;;;-7.43;100.00
32747;BME280;19118;50.860;13.662;2022-12-18T13:56:51;98395.88;;;-7.29;100.00
32747;BME280;19118;50.860;13.662;2022-12-18T14:07:11;98393.97;;;-7.74;100.00
32747;BME280;19118;50.860;13.662;2022-12-18T14:12:16;98398.16;;;-8.24;100.00
32747;BME280;19118;50.860;13.662;2022-12-18T14:17:36;98393.88;;;-8.52;100.00
32747;BME280;19118;50.860;13.662;2022-12-18T14:22:36;98395.03;;;-8.91;100.00
32747;BME280;19118;50.860;13.662;2022-12-18T14:27:38;98407.09;;;-9.26;100.00
32747;BME280;19118;50.860;13.662;2022-12-18T14:32:41;98391.56;;;-9.52;100.00
32747;BME280;19118;50.860;13.662;2022-12-18T14:37:42;98369.72;;;-9.65;100.00
32747;BME280;19118;50.860;13.662;2022-12-18T14:42:42;98377.34;;;-9.62;100.00
32747;BME280;19118;50.860;13.662;2022-12-18T14:47:43;98374.13;;;-9.38;100.00
32747;BME280;19118;50.860;13.662;2022-12-18T14:52:43;98367.09;;;-9.31;100.00
32747;BME280;19118;50.860;13.662;2022-12-18T14:57:45;98371.84;;;-9.16;100.00
32747;BME280;19118;50.860;13.662;2022-12-18T15:02:54;98364.16;;;-9.18;100.00
32747;BME280;19118;50.860;13.662;2022-12-18T15:07:57;98371.38;;;-9.32;100.00
32747;BME280;19118;50.860;13.662;2022-12-18T15:18:04;98354.03;;;-9.86;100.00
32747;BME280;19118;50.860;13.662;2022-12-18T15:28:37;98356.91;;;-10.32;100.00
32747;BME280;19118;50.860;13.662;2022-12-18T15:38:52;98338.78;;;-9.56;100.00
32747;BME280;19118;50.860;13.662;2022-12-18T15:43:53;98339.88;;;-9.34;100.00
32747;BME280;19118;50.860;13.662;2022-12-18T15:48:55;98342.91;;;-9.51;100.00
32747;BME280;19118;50.860;13.662;2022-12-18T15:53:58;98336.75;;;-9.45;100.00
32747;BME280;19118;50.860;13.662;2022-12-18T15:58:59;98336.19;;;-9.24;100.00
32747;BME280;19118;50.860;13.662;2022-12-18T16:03:59;98336.59;;;-9.39;100.00
32747;BME280;19118;50.860;13.662;2022-12-18T16:08:59;98330.41;;;-9.63;100.00
32747;BME280;19118;50.860;13.662;2022-12-18T16:14:00;98327.78;;;-9.92;100.00
32747;BME280;19118;50.860;13.662;2022-12-18T16:19:00;98325.78;;;-10.15;100.00
32747;BME280;19118;50.860;13.662;2022-12-18T16:24:00;98326.13;;;-10.27;100.00
32747;BME280;19118;50.860;13.662;2022-12-18T16:29:01;98320.34;;;-10.36;100.00
32747;BME280;19118;50.860;13.662;2022-12-18T16:34:21;98324.66;;;-10.38;100.00
32747;BME280;19118;50.860;13.662;2022-12-18T16:39:28;98316.84;;;-10.32;100.00
32747;BME280;19118;50.860;13.662;2022-12-18T16:44:30;98315.16;;;-10.33;100.00
32747;BME280;19118;50.860;13.662;2022-12-18T16:49:30;98305.25;;;-10.12;100.00
32747;BME280;19118;50.860;13.662;2022-12-18T16:54:31;98314.50;;;-10.08;100.00
32747;BME280;19118;50.860;13.662;2022-12-18T16:59:32;98304.94;;;-10.00;100.00
32747;BME280;19118;50.860;13.662;2022-12-18T17:04:33;98307.81;;;-9.80;100.00
32747;BME280;19118;50.860;13.662;2022-12-18T17:09:33;98305.41;;;-9.86;100.00
32747;BME280;19118;50.860;13.662;2022-12-18T17:14:35;98295.13;;;-9.83;100.00
32747;BME280;19118;50.860;13.662;2022-12-18T17:19:35;98284.56;;;-9.71;100.00
32747;BME280;19118;50.860;13.662;2022-12-18T17:24:36;98280.78;;;-9.57;100.00
32747;BME280;19118;50.860;13.662;2022-12-18T17:29:36;98279.44;;;-9.40;100.00
32747;BME280;19118;50.860;13.662;2022-12-18T17:34:37;98271.00;;;-9.14;100.00
32747;BME280;19118;50.860;13.662;2022-12-18T17:39:38;98263.41;;;-8.89;100.00
32747;BME280;19118;50.860;13.662;2022-12-18T17:44:38;98267.41;;;-8.80;100.00
32747;BME280;19118;50.860;13.662;2022-12-18T17:49:39;98259.72;;;-8.80;100.00
32747;BME280;19118;50.860;13.662;2022-12-18T17:54:40;98253.84;;;-8.84;100.00
32747;BME280;19118;50.860;13.662;2022-12-18T17:59:42;98252.28;;;-8.88;100.00
32747;BME280;19118;50.860;13.662;2022-12-18T18:04:43;98256.78;;;-8.68;100.00
32747;BME280;19118;50.860;13.662;2022-12-18T18:09:43;98252.38;;;-8.36;100.00
32747;BME280;19118;50.860;13.662;2022-12-18T18:14:44;98249.06;;;-8.15;100.00
32747;BME280;19118;50.860;13.662;2022-12-18T18:19:44;98255.84;;;-8.14;100.00
32747;BME280;19118;50.860;13.662;2022-12-18T18:24:44;98243.22;;;-8.20;100.00
32747;BME280;19118;50.860;13.662;2022-12-18T18:29:46;98238.31;;;-8.01;100.00
32747;BME280;19118;50.860;13.662;2022-12-18T18:34:47;98237.09;;;-7.66;100.00
32747;BME280;19118;50.860;13.662;2022-12-18T18:39:47;98217.88;;;-7.56;100.00
32747;BME280;19118;50.860;13.662;2022-12-18T18:44:47;98214.69;;;-7.39;100.00
32747;BME280;19118;50.860;13.662;2022-12-18T18:49:48;98218.78;;;-7.34;100.00
32747;BME280;19118;50.860;13.662;2022-12-18T18:54:48;98216.97;;;-7.31;100.00
32747;BME280;19118;50.860;13.662;2022-12-18T18:59:49;98214.28;;;-7.28;100.00
32747;BME280;19118;50.860;13.662;2022-12-18T19:04:49;98206.00;;;-7.37;100.00
32747;BME280;19118;50.860;13.662;2022-12-18T19:09:50;98199.28;;;-7.39;100.00
32747;BME280;19118;50.860;13.662;2022-12-18T19:14:53;98181.13;;;-7.35;100.00
32747;BME280;19118;50.860;13.662;2022-12-18T19:19:54;98184.09;;;-7.45;100.00
32747;BME280;19118;50.860;13.662;2022-12-18T19:24:54;98166.16;;;-7.23;100.00
32747;BME280;19118;50.860;13.662;2022-12-18T19:29:54;98162.56;;;-6.97;100.00
32747;BME280;19118;50.860;13.662;2022-12-18T19:34:55;98153.22;;;-6.58;100.00
32747;BME280;19118;50.860;13.662;2022-12-18T19:39:56;98140.69;;;-6.45;100.00
32747;BME280;19118;50.860;13.662;2022-12-18T19:44:56;98119.44;;;-6.09;100.00
32747;BME280;19118;50.860;13.662;2022-12-18T19:49:57;98101.72;;;-5.06;100.00
32747;BME280;19118;50.860;13.662;2022-12-18T19:54:57;98086.44;;;-3.91;100.00
32747;BME280;19118;50.860;13.662;2022-12-18T19:59:57;98092.38;;;-3.26;98.85
32747;BME280;19118;50.860;13.662;2022-12-18T20:04:58;98090.66;;;-2.95;93.10
32747;BME280;19118;50.860;13.662;2022-12-18T20:09:58;98065.19;;;-2.87;91.77
32747;BME280;19118;50.860;13.662;2022-12-18T20:14:59;98070.16;;;-2.84;93.83
32747;BME280;19118;50.860;13.662;2022-12-18T20:20:00;98069.84;;;-2.78;93.84
32747;BME280;19118;50.860;13.662;2022-12-18T20:25:00;98069.56;;;-2.73;94.56
32747;BME280;19118;50.860;13.662;2022-12-18T20:30:00;98078.84;;;-2.69;93.35
32747;BME280;19118;50.860;13.662;2022-12-18T20:35:01;98077.19;;;-2.56;91.24
32747;BME280;19118;50.860;13.662;2022-12-18T20:40:02;98064.25;;;-2.56;91.57
32747;BME280;19118;50.860;13.662;2022-12-18T20:45:03;98042.50;;;-2.68;93.27
32747;BME280;19118;50.860;13.662;2022-12-18T20:50:05;98026.78;;;-2.65;92.01
32747;BME280;19118;50.860;13.662;2022-12-18T20:55:05;98042.59;;;-2.55;90.96
32747;BME280;19118;50.860;13.662;2022-12-18T21:00:06;98036.50;;;-2.40;87.57
32747;BME280;19118;50.860;13.662;2022-12-18T21:05:07;98051.06;;;-2.37;87.27
32747;BME280;19118;50.860;13.662;2022-12-18T21:10:08;98049.75;;;-2.44;89.15
32747;BME280;19118;50.860;13.662;2022-12-18T21:15:09;98043.44;;;-2.40;87.44
32747;BME280;19118;50.860;13.662;2022-12-18T21:20:09;98058.34;;;-2.44;90.05
32747;BME280;19118;50.860;13.662;2022-12-18T21:25:10;98050.13;;;-2.22;86.75
32747;BME280;19118;50.860;13.662;2022-12-18T21:30:10;98044.75;;;-2.19;86.11
32747;BME280;19118;50.860;13.662;2022-12-18T21:35:11;98047.91;;;-2.28;87.15
32747;BME280;19118;50.860;13.662;2022-12-18T21:40:12;98036.34;;;-2.22;86.01
32747;BME280;19118;50.860;13.662;2022-12-18T21:45:12;98032.91;;;-2.09;84.58
32747;BME280;19118;50.860;13.662;2022-12-18T21:50:13;98027.53;;;-2.06;84.20
32747;BME280;19118;50.860;13.662;2022-12-18T21:55:13;98028.38;;;-2.05;84.91
32747;BME280;19118;50.860;13.662;2022-12-18T22:00:14;98012.25;;;-1.96;83.06
32747;BME280;19118;50.860;13.662;2022-12-18T22:05:15;98010.41;;;-1.94;82.31
32747;BME280;19118;50.860;13.662;2022-12-18T22:10:15;98018.00;;;-1.91;82.12
32747;BME280;19118;50.860;13.662;2022-12-18T22:15:16;98019.19;;;-1.96;82.99
32747;BME280;19118;50.860;13.662;2022-12-18T22:20:17;98020.69;;;-2.07;84.33
32747;BME280;19118;50.860;13.662;2022-12-18T22:25:18;98013.66;;;-2.05;83.60
32747;BME280;19118;50.860;13.662;2022-12-18T22:30:18;98010.59;;;-1.97;82.11
32747;BME280;19118;50.860;13.662;2022-12-18T22:35:19;98009.47;;;-1.79;79.74
32747;BME280;19118;50.860;13.662;2022-12-18T22:40:25;98011.97;;;-1.77;79.71
32747;BME280;19118;50.860;13.662;2022-12-18T22:45:26;97996.81;;;-1.97;83.06
32747;BME280;19118;50.860;13.662;2022-12-18T22:50:27;97987.94;;;-2.08;83.63
32747;BME280;19118;50.860;13.662;2022-12-18T22:55:27;97987.94;;;-2.08;83.08
32747;BME280;19118;50.860;13.662;2022-12-18T23:00:27;97973.41;;;-2.10;82.14
32747;BME280;19118;50.860;13.662;2022-12-18T23:05:29;97974.63;;;-2.16;82.40
32747;BME280;19118;50.860;13.662;2022-12-18T23:10:30;97970.56;;;-2.20;82.66
32747;BME280;19118;50.860;13.662;2022-12-18T23:15:31;97972.31;;;-2.20;81.37
32747;BME280;19118;50.860;13.662;2022-12-18T23:20:31;97973.88;;;-2.03;76.57
32747;BME280;19118;50.860;13.662;2022-12-18T23:25:33;97953.06;;;-2.02;76.91
32747;BME280;19118;50.860;13.662;2022-12-18T23:30:34;97942.84;;;-1.91;75.55
32747;BME280;19118;50.860;13.662;2022-12-18T23:35:34;97933.16;;;-1.74;73.84
32747;BME280;19118;50.860;13.662;2022-12-18T23:40:34;97926.88;;;-1.85;74.26
32747;BME280;19118;50.860;13.662;2022-12-18T23:45:38;97906.34;;;-1.88;74.47
32747;BME280;19118;50.860;13.662;2022-12-18T23:50:38;97900.00;;;-1.69;70.24
32747;BME280;19118;50.860;13.662;2022-12-18T23:55:43;97898.94;;;-1.80;73.79
